Al Amerat — 3FRY4 — position and weather

sailwx.info

Track history (hours):
 
Tides and Currents Weather Stations Pressure Air Temp Water Temp Dewpoint Dewpoint Depression Visibility Wind Speed Wind Dir Waves Ship Positions

Al Amerat

Last reported at 2018-Jan-30 10:30 UTC. Time now 2018-Feb-23 03:07 UTC.
Position N 01°16' E 103°24'.
Warning: this ship's position is 23 days out of date.

Length 183 m; draft 7 m.

Type: Tanker. MMSI: 370706000.

Date/timePositionNaut miles runAvg speedWind from/ knotsBaromVisibWave heightAir tempDewpointWater temp
2018-Jan-30 10:30N 01°16' E 103°24'1313.2
2018-Jan-30 09:30N 01°12' E 103°36'612.0
2018-Jan-30 09:00N 01°10' E 103°42'4 8.9
2018-Jan-30 08:30N 01°10' E 103°46'4 9.0
2018-Jan-30 08:00N 01°11' E 103°50'4 8.6
2018-Jan-30 07:30N 01°14' E 103°54'2 2.6
2018-Jan-30 06:52N 01°16' E 103°54'0 0.0
2018-Jan-30 06:22N 01°16' E 103°54'0 0.0
2018-Jan-30 05:58N 01°16' E 103°54'0 0.0
2018-Jan-30 05:28N 01°16' E 103°54'0 0.0
2018-Jan-30 04:58N 01°16' E 103°54'0 0.0
2018-Jan-30 04:28N 01°16' E 103°54'0 0.0
2018-Jan-30 03:46N 01°16' E 103°54'0 0.0
2018-Jan-30 03:28N 01°16' E 103°54'0 0.1
2018-Jan-30 02:58N 01°16' E 103°54'0 0.1
2018-Jan-30 02:28N 01°16' E 103°54'0 0.1
2018-Jan-30 01:52N 01°15' E 103°54'0 0.2
2018-Jan-30 01:28N 01°15' E 103°54'0 0.1
2018-Jan-30 00:46N 01°16' E 103°54'0 0.0
2018-Jan-30 00:28N 01°15' E 103°54'0 0.0
2018-Jan-29 23:58N 01°15' E 103°54'0 0.0
2018-Jan-29 23:22N 01°15' E 103°54'0 0.0
2018-Jan-29 22:43N 01°15' E 103°54'0 0.2
2018-Jan-29 22:28N 01°15' E 103°54'0 0.1
2018-Jan-29 21:58N 01°15' E 103°54'0 0.1
2018-Jan-29 21:28N 01°15' E 103°54'0 0.1
2018-Jan-29 20:58N 01°15' E 103°54'0 0.1
2018-Jan-29 20:28N 01°15' E 103°54'0 0.1
2018-Jan-29 19:58N 01°15' E 103°54'0 0.1
2018-Jan-29 19:28N 01°15' E 103°54'0 0.0
2018-Jan-29 18:46N 01°15' E 103°54'0 0.0
2018-Jan-29 18:22N 01°15' E 103°54'0 0.0
2018-Jan-29 17:55N 01°15' E 103°54'0 0.0
2018-Jan-29 17:28N 01°15' E 103°54'0 0.0
2018-Jan-29 16:52N 01°15' E 103°54'0 0.0
2018-Jan-29 16:19N 01°15' E 103°54'0 0.1
2018-Jan-29 15:49N 01°15' E 103°54'0 0.1
2018-Jan-29 15:04N 01°15' E 103°54'0 0.6
2018-Jan-29 14:57N 01°15' E 103°54'2 3.8
2018-Jan-29 14:30N 01°14' E 103°55'3 5.8
2018-Jan-29 14:00N 01°15' E 103°58'2 3.0
2018-Jan-29 13:25N 01°16' E 103°60'2 5.6
2018-Jan-29 12:59N 01°16' E 104°02'5 9.4
2018-Jan-29 12:27N 01°17' E 104°07'  
2018-Jan-24 09:06N 22°55' E 119°33'214.7
2018-Jan-24 08:56N 22°57' E 119°35'714.4
2018-Jan-24 08:29N 23°02' E 119°39'814.1
2018-Jan-24 07:55N 23°09' E 119°43'613.8
2018-Jan-24 07:30N 23°14' E 119°46'813.2
2018-Jan-24 06:55N 23°22' E 119°48'512.8
2018-Jan-24 06:31N 23°27' E 119°48'612.2
2018-Jan-24 06:00N 23°33' E 119°47'611.8
2018-Jan-24 05:30N 23°39' E 119°47'612.5
2018-Jan-24 05:00N 23°45' E 119°48'612.5
2018-Jan-24 04:30N 23°51' E 119°50'45711.4
2018-Jan-22 12:22N 31°05' E 122°31'411.7
2018-Jan-22 12:00N 31°06' E 122°26'1113.9
2018-Jan-22 11:13N 31°09' E 122°13'514.8
2018-Jan-22 10:53N 31°12' E 122°09'511.3
2018-Jan-22 10:29N 31°14' E 122°04'613.4
2018-Jan-22 10:00N 31°15' E 121°57'714.2
2018-Jan-22 09:29N 31°17' E 121°49'1511.3
2018-Jan-22 08:12N 31°24' E 121°34'310.9
2018-Jan-22 07:56N 31°25' E 121°31'3 7.7
2018-Jan-22 07:30N 31°27' E 121°28'2 3.8
2018-Jan-22 07:00N 31°29' E 121°26'3 5.9
2018-Jan-22 06:30N 31°31' E 121°24'510.9
2018-Jan-22 06:00N 31°34' E 121°19'612.3
2018-Jan-22 05:30N 31°39' E 121°14'611.7
2018-Jan-22 05:00N 31°42' E 121°08'612.7
2018-Jan-22 04:30N 31°46' E 121°02'  
Track history (hours):
 
Tides and Currents Weather Stations Pressure Air Temp Water Temp Dewpoint Dewpoint Depression Visibility Wind Speed Wind Dir Waves Ship Positions

Al Amerat

Last reported at 2018-Jan-30 10:30 UTC. Time now 2018-Feb-23 03:07 UTC.
Position N 01°16' E 103°24'.
Warning: this ship's position is 23 days out of date.

Length 183 m; draft 7 m.

Type: Tanker. MMSI: 370706000.

Date/timePositionNaut miles runAvg speedWind from/ knotsBaromVisibWave heightAir tempDewpointWater temp
2018-Jan-30 10:30N 01°16' E 103°24'1313.2
2018-Jan-30 09:30N 01°12' E 103°36'612.0
2018-Jan-30 09:00N 01°10' E 103°42'4 8.9
2018-Jan-30 08:30N 01°10' E 103°46'4 9.0
2018-Jan-30 08:00N 01°11' E 103°50'4 8.6
2018-Jan-30 07:30N 01°14' E 103°54'2 2.6
2018-Jan-30 06:52N 01°16' E 103°54'0 0.0
2018-Jan-30 06:22N 01°16' E 103°54'0 0.0
2018-Jan-30 05:58N 01°16' E 103°54'0 0.0
2018-Jan-30 05:28N 01°16' E 103°54'0 0.0
2018-Jan-30 04:58N 01°16' E 103°54'0 0.0
2018-Jan-30 04:28N 01°16' E 103°54'0 0.0
2018-Jan-30 03:46N 01°16' E 103°54'0 0.0
2018-Jan-30 03:28N 01°16' E 103°54'0 0.1
2018-Jan-30 02:58N 01°16' E 103°54'0 0.1
2018-Jan-30 02:28N 01°16' E 103°54'0 0.1
2018-Jan-30 01:52N 01°15' E 103°54'0 0.2
2018-Jan-30 01:28N 01°15' E 103°54'0 0.1
2018-Jan-30 00:46N 01°16' E 103°54'0 0.0
2018-Jan-30 00:28N 01°15' E 103°54'0 0.0
2018-Jan-29 23:58N 01°15' E 103°54'0 0.0
2018-Jan-29 23:22N 01°15' E 103°54'0 0.0
2018-Jan-29 22:43N 01°15' E 103°54'0 0.2
2018-Jan-29 22:28N 01°15' E 103°54'0 0.1
2018-Jan-29 21:58N 01°15' E 103°54'0 0.1
2018-Jan-29 21:28N 01°15' E 103°54'0 0.1
2018-Jan-29 20:58N 01°15' E 103°54'0 0.1
2018-Jan-29 20:28N 01°15' E 103°54'0 0.1
2018-Jan-29 19:58N 01°15' E 103°54'0 0.1
2018-Jan-29 19:28N 01°15' E 103°54'0 0.0
2018-Jan-29 18:46N 01°15' E 103°54'0 0.0
2018-Jan-29 18:22N 01°15' E 103°54'0 0.0
2018-Jan-29 17:55N 01°15' E 103°54'0 0.0
2018-Jan-29 17:28N 01°15' E 103°54'0 0.0
2018-Jan-29 16:52N 01°15' E 103°54'0 0.0
2018-Jan-29 16:19N 01°15' E 103°54'0 0.1
2018-Jan-29 15:49N 01°15' E 103°54'0 0.1
2018-Jan-29 15:04N 01°15' E 103°54'0 0.6
2018-Jan-29 14:57N 01°15' E 103°54'2 3.8
2018-Jan-29 14:30N 01°14' E 103°55'3 5.8
2018-Jan-29 14:00N 01°15' E 103°58'2 3.0
2018-Jan-29 13:25N 01°16' E 103°60'2 5.6
2018-Jan-29 12:59N 01°16' E 104°02'5 9.4
2018-Jan-29 12:27N 01°17' E 104°07'  
2018-Jan-24 09:06N 22°55' E 119°33'214.7
2018-Jan-24 08:56N 22°57' E 119°35'714.4
2018-Jan-24 08:29N 23°02' E 119°39'814.1
2018-Jan-24 07:55N 23°09' E 119°43'613.8
2018-Jan-24 07:30N 23°14' E 119°46'813.2
2018-Jan-24 06:55N 23°22' E 119°48'512.8
2018-Jan-24 06:31N 23°27' E 119°48'612.2
2018-Jan-24 06:00N 23°33' E 119°47'611.8
2018-Jan-24 05:30N 23°39' E 119°47'612.5
2018-Jan-24 05:00N 23°45' E 119°48'612.5
2018-Jan-24 04:30N 23°51' E 119°50'45711.4
2018-Jan-22 12:22N 31°05' E 122°31'411.7
2018-Jan-22 12:00N 31°06' E 122°26'1113.9
2018-Jan-22 11:13N 31°09' E 122°13'514.8
2018-Jan-22 10:53N 31°12' E 122°09'511.3
2018-Jan-22 10:29N 31°14' E 122°04'613.4
2018-Jan-22 10:00N 31°15' E 121°57'714.2
2018-Jan-22 09:29N 31°17' E 121°49'1511.3
2018-Jan-22 08:12N 31°24' E 121°34'310.9
2018-Jan-22 07:56N 31°25' E 121°31'3 7.7
2018-Jan-22 07:30N 31°27' E 121°28'2 3.8
2018-Jan-22 07:00N 31°29' E 121°26'3 5.9
2018-Jan-22 06:30N 31°31' E 121°24'510.9
2018-Jan-22 06:00N 31°34' E 121°19'612.3
2018-Jan-22 05:30N 31°39' E 121°14'611.7
2018-Jan-22 05:00N 31°42' E 121°08'612.7
2018-Jan-22 04:30N 31°46' E 121°02'  

Dump ship's entire track history